Gwalarn — FH3895 — position and weather

sailwx.info

Track history (hours):
 
Tides and Currents Weather Stations Pressure Air Temp Water Temp Dewpoint Dewpoint Depression Visibility Wind Speed Wind Dir Waves Ship Positions

Gwalarn

Last reported at 2018-Jun-18 12:50 UTC. Time now 2018-Jun-18 19:33 UTC.
Position N 48°28' W 004°46'.

Length 10 m.

Type: Fishing. MMSI: 227461310.

Date/timePositionNaut miles runAvg speedWind from/ knotsBaromVisibWave heightAir tempDewpointWater temp
2018-Jun-18 12:50N 48°28' W 004°46'1 2.2
2018-Jun-18 12:24N 48°29' W 004°47'0 0.0
2018-Jun-18 11:56N 48°29' W 004°47'5 3.9
2018-Jun-18 10:43N 48°25' W 004°51'5 0.8
2018-Jun-18 04:43N 48°23' W 004°58'5 3.0
2018-Jun-18 02:57N 48°26' W 004°52'  
2018-Jun-15 02:49N 48°27' W 004°51'2 6.6
2018-Jun-15 02:30N 48°28' W 004°48'3 0.1
2018-Jun-13 09:58N 48°25' W 004°51'4 0.5
2018-Jun-13 02:18N 48°28' W 004°47'1 0.0
2018-Jun-12 02:27N 48°28' W 004°48'1 0.1
2018-Jun-11 12:05N 48°28' W 004°46'1 6.2
2018-Jun-11 12:00N 48°29' W 004°47'0 0.3
2018-Jun-11 11:27N 48°29' W 004°47'0 0.0
2018-Jun-11 11:00N 48°29' W 004°47'0 0.1
2018-Jun-11 10:25N 48°29' W 004°47'0 0.0
2018-Jun-11 09:57N 48°29' W 004°47'0 0.1
2018-Jun-11 09:27N 48°29' W 004°47'0 0.1
2018-Jun-11 09:00N 48°29' W 004°47'0 0.0
2018-Jun-11 08:27N 48°29' W 004°47'2 0.3
2018-Jun-11 02:34N 48°28' W 004°49'1 7.6
2018-Jun-11 02:30N 48°28' W 004°48'  
Track history (hours):
 
Tides and Currents Weather Stations Pressure Air Temp Water Temp Dewpoint Dewpoint Depression Visibility Wind Speed Wind Dir Waves Ship Positions

Gwalarn

Last reported at 2018-Jun-18 12:50 UTC. Time now 2018-Jun-18 19:33 UTC.
Position N 48°28' W 004°46'.

Length 10 m.

Type: Fishing. MMSI: 227461310.

Date/timePositionNaut miles runAvg speedWind from/ knotsBaromVisibWave heightAir tempDewpointWater temp
2018-Jun-18 12:50N 48°28' W 004°46'1 2.2
2018-Jun-18 12:24N 48°29' W 004°47'0 0.0
2018-Jun-18 11:56N 48°29' W 004°47'5 3.9
2018-Jun-18 10:43N 48°25' W 004°51'5 0.8
2018-Jun-18 04:43N 48°23' W 004°58'5 3.0
2018-Jun-18 02:57N 48°26' W 004°52'  
2018-Jun-15 02:49N 48°27' W 004°51'2 6.6
2018-Jun-15 02:30N 48°28' W 004°48'3 0.1
2018-Jun-13 09:58N 48°25' W 004°51'4 0.5
2018-Jun-13 02:18N 48°28' W 004°47'1 0.0
2018-Jun-12 02:27N 48°28' W 004°48'1 0.1
2018-Jun-11 12:05N 48°28' W 004°46'1 6.2
2018-Jun-11 12:00N 48°29' W 004°47'0 0.3
2018-Jun-11 11:27N 48°29' W 004°47'0 0.0
2018-Jun-11 11:00N 48°29' W 004°47'0 0.1
2018-Jun-11 10:25N 48°29' W 004°47'0 0.0
2018-Jun-11 09:57N 48°29' W 004°47'0 0.1
2018-Jun-11 09:27N 48°29' W 004°47'0 0.1
2018-Jun-11 09:00N 48°29' W 004°47'0 0.0
2018-Jun-11 08:27N 48°29' W 004°47'2 0.3
2018-Jun-11 02:34N 48°28' W 004°49'1 7.6
2018-Jun-11 02:30N 48°28' W 004°48'  

Dump ship's entire track history